Pagina principale
METAR-TAF:

METAR-TAF

Aeroporti :

Aeroporto Internazionale Re Mswati III

Manzini, Swaziland

latitudine: 26-21-24S, longitudine: 031-43-01E, altezza: 324 m

Osservazione

Il bollettino è stato emesso 4 ore e 49 minuti fa, alle 13:00 UTC
Vento 7 kt da nord/nord-est
Temperature 26°C
Umidità 42%
Pressione 1023 hPa
Visibilità 10 km o più
nessuna nube inferiore a 1500 m e nessun cumulonembo

METAR: FDSK 311300Z 03007KT CAVOK 26/12 Q1023 NOSIG

Ora: 19:49 (17:49 UTC)

Previsione

Il bollettino è stato emesso 31 ore e 49 minuti fa, alle 10:00 UTC
Previsione valida dal 30 alle 12 UTC al 30 alle 18 UTC
Vento 6 kt da nord-est
Visibilità 10 km o più
Nubi sparse ad un'altezza di 3500 ft
Evoluzione graduale
dal 30 alle 16 UTC al 30 alle 18 UTC
Visibilità 10 km o più
nessuna nube inferiore a 1500 m e nessun cumulonembo

TAF: FDSK 301000Z 3012/3018 04006KT 9999 SCT035 BECMG 3016/3018 CAVOK

Osservazioni e previsioni meteorologiche di più di 4000 aeroporti (messaggi METAR e TAF).

Le stazioni disponibili sono rappresentate dai dischi gialli e rossi sulla carta.

Puntare il mouse per vedere il nome della stazione.

Clicca sopra per visualizzare le osservazioni e previsioni meteorologiche.

Per cambiare la mappa : fare clic sui pulsanti verdi con una croce nera per ingrandire, il pulsante verde con un trattino per diminuire, o sulla freccia verde per le mappe adiacenti.


METAR-TAF: